Time;durP1;ratioP1;P1;durP2;ratioP2;P2;SDS_P1;SDS_P2;PMS_P1;PMS_P2;Temp;Humidity;BMP_temperature;BMP_pressure;BME280_temperature;BME280_humidity;BME280_pressure;Samples;Min_cycle;Max_cycle;Signal;HPM_P1;HPM_P2
2021/12/25 00:01:07;;;;;;;124.35;37.42;;;;;;;;;;5019429;28;20033;-85
2021/12/25 00:03:35;;;;;;;121.63;36.72;;;;;;;;;;5019120;28;20040;-85
2021/12/25 00:06:01;;;;;;;136.05;38.88;;;;;;;;;;5019125;28;20037;-85
2021/12/25 00:08:29;;;;;;;126.70;34.42;;;;;;;;;;5019069;28;20488;-85
2021/12/25 00:10:56;;;;;;;121.65;39.47;;;;;;;;;;5036903;28;20038;-85
2021/12/25 00:13:23;;;;;;;133.52;39.20;;;;;;;;;;5019174;28;20080;-85
2021/12/25 00:15:50;;;;;;;136.32;41.17;;;;;;;;;;5019095;28;20025;-85
2021/12/25 00:18:16;;;;;;;129.35;38.72;;;;;;;;;;5019050;28;20037;-86
2021/12/25 00:20:43;;;;;;;124.38;36.97;;;;;;;;;;5019059;28;20113;-85
2021/12/25 00:23:10;;;;;;;113.55;35.92;;;;;;;;;;5019177;28;20101;-85
2021/12/25 00:25:42;;;;;;;123.03;37.58;;;;;;;;;;5018954;28;20125;-86
2021/12/25 00:28:48;;;;;;;116.63;39.58;;;;;;;;;;5019347;28;20044;-85
2021/12/25 00:36:09;;;;;;;98.03;31.20;;;;;;;;;;5036369;28;20025;-86
2021/12/25 00:38:41;;;;;;;103.05;32.40;;;;;;;;;;5036594;28;20108;-86
2021/12/25 00:41:08;;;;;;;98.28;32.60;;;;;;;;;;5018767;28;20386;-86
2021/12/25 00:43:35;;;;;;;105.63;31.50;;;;;;;;;;5035144;28;20112;-86
2021/12/25 00:46:01;;;;;;;99.97;32.92;;;;;;;;;;5018587;28;20073;-86
2021/12/25 00:48:28;;;;;;;90.07;29.48;;;;;;;;;;5036236;28;20447;-86
2021/12/25 00:50:54;;;;;;;96.18;30.23;;;;;;;;;;5018613;28;20041;-86
2021/12/25 00:53:21;;;;;;;83.38;28.58;;;;;;;;;;5018649;28;20041;-86
2021/12/25 00:55:47;;;;;;;90.53;29.70;;;;;;;;;;5018250;28;20037;-86
2021/12/25 00:58:13;;;;;;;93.57;30.17;;;;;;;;;;5018296;28;20041;-86
2021/12/25 01:00:40;;;;;;;90.68;29.27;;;;;;;;;;5018323;28;20034;-85
2021/12/25 01:03:09;;;;;;;91.28;31.23;;;;;;;;;;5018373;28;20029;-85
2021/12/25 01:05:35;;;;;;;106.97;35.13;;;;;;;;;;5018170;28;20088;-86
2021/12/25 01:08:02;;;;;;;106.45;35.88;;;;;;;;;;5035743;28;20042;-85
2021/12/25 01:10:29;;;;;;;116.95;38.17;;;;;;;;;;5017881;28;20030;-86
2021/12/25 01:15:29;;;;;;;115.03;37.58;;;;;;;;;;5035821;28;20061;-85
2021/12/25 01:26:14;;;;;;;121.10;41.47;;;;;;;;;;5035825;28;20064;-85
2021/12/25 01:49:24;;;;;;;98.93;32.83;;;;;;;;;;5035471;28;20068;-86
2021/12/25 01:51:50;;;;;;;103.15;37.42;;;;;;;;;;5017434;28;20053;-86
2021/12/25 01:54:17;;;;;;;117.18;39.60;;;;;;;;;;5017267;28;20120;-86
2021/12/25 01:56:43;;;;;;;75.30;27.75;;;;;;;;;;5017966;28;20129;-86
2021/12/25 01:59:10;;;;;;;66.90;24.63;;;;;;;;;;5017370;28;20029;-86
2021/12/25 02:01:36;;;;;;;70.22;25.55;;;;;;;;;;5017274;28;20084;-86
2021/12/25 02:04:02;;;;;;;74.72;25.45;;;;;;;;;;5017319;28;20025;-87
2021/12/25 02:06:29;;;;;;;60.20;23.17;;;;;;;;;;5034315;28;20042;-86
2021/12/25 02:08:55;;;;;;;63.85;23.45;;;;;;;;;;5016907;28;20121;-86
2021/12/25 02:11:21;;;;;;;60.38;21.63;;;;;;;;;;5017204;28;20128;-86
2021/12/25 02:13:48;;;;;;;57.95;21.92;;;;;;;;;;5017040;28;20064;-86
2021/12/25 02:16:18;;;;;;;47.65;19.35;;;;;;;;;;5017139;28;20079;-86
2021/12/25 02:21:24;;;;;;;54.13;22.48;;;;;;;;;;5034498;28;20198;-85
2021/12/25 02:23:51;;;;;;;57.45;22.13;;;;;;;;;;5010984;28;20029;-86
2021/12/25 02:26:18;;;;;;;53.08;21.05;;;;;;;;;;5016743;28;20071;-86
2021/12/25 02:28:45;;;;;;;53.42;21.13;;;;;;;;;;5016832;28;20547;-86
2021/12/25 02:31:13;;;;;;;55.72;21.75;;;;;;;;;;5016811;28;20506;-86
2021/12/25 02:33:39;;;;;;;58.65;21.38;;;;;;;;;;5033186;28;20085;-86
2021/12/25 02:36:06;;;;;;;62.95;23.65;;;;;;;;;;5016635;28;20387;-86
2021/12/25 02:38:33;;;;;;;62.60;23.25;;;;;;;;;;5016483;28;20483;-86
2021/12/25 02:41:00;;;;;;;55.65;24.75;;;;;;;;;;5016579;28;20052;-86
2021/12/25 02:43:26;;;;;;;54.30;22.67;;;;;;;;;;5016662;28;20043;-86
2021/12/25 02:46:01;;;;;;;58.28;21.92;;;;;;;;;;5033125;28;20029;-86
2021/12/25 02:48:27;;;;;;;59.20;23.58;;;;;;;;;;5016698;28;20045;-85
2021/12/25 02:50:54;;;;;;;49.03;21.30;;;;;;;;;;5032955;28;20025;-86
2021/12/25 02:53:20;;;;;;;50.33;20.77;;;;;;;;;;5032952;28;20100;-86
2021/12/25 02:55:47;;;;;;;51.47;21.45;;;;;;;;;;5016482;28;20064;-86
2021/12/25 02:58:14;;;;;;;47.03;18.92;;;;;;;;;;5033928;28;20130;-85
2021/12/25 03:00:42;;;;;;;42.25;18.88;;;;;;;;;;5032584;28;20025;-85
2021/12/25 03:03:09;;;;;;;44.85;20.15;;;;;;;;;;5016180;28;20171;-86
2021/12/25 03:05:36;;;;;;;54.25;22.00;;;;;;;;;;5032678;28;20034;-86
2021/12/25 03:08:04;;;;;;;48.95;20.08;;;;;;;;;;5035964;28;20037;-86
2021/12/25 03:10:33;;;;;;;54.92;22.58;;;;;;;;;;5036799;28;20490;-86
2021/12/25 03:15:45;;;;;;;49.15;21.17;;;;;;;;;;5037864;28;20061;-86
2021/12/25 03:18:26;;;;;;;52.58;21.92;;;;;;;;;;5020057;28;20439;-85
2021/12/25 03:20:55;;;;;;;94.03;38.25;;;;;;;;;;5020526;28;20033;-86
2021/12/25 03:23:22;;;;;;;74.78;32.72;;;;;;;;;;5036383;28;20043;-86
2021/12/25 03:25:50;;;;;;;79.78;32.17;;;;;;;;;;5019953;28;20116;-86
2021/12/25 03:28:18;;;;;;;72.18;29.02;;;;;;;;;;5036510;28;20084;-86
2021/12/25 03:30:44;;;;;;;59.00;23.75;;;;;;;;;;5036947;28;20029;-86
2021/12/25 03:33:12;;;;;;;55.72;24.80;;;;;;;;;;5036057;28;20058;-86
2021/12/25 03:35:39;;;;;;;61.70;23.65;;;;;;;;;;5019769;28;20061;-86
2021/12/25 03:38:06;;;;;;;44.28;17.42;;;;;;;;;;5036124;28;20044;-86
2021/12/25 03:40:33;;;;;;;34.78;15.32;;;;;;;;;;5019714;28;20034;-85
2021/12/25 03:43:00;;;;;;;26.80;12.55;;;;;;;;;;5037674;28;20103;-86
2021/12/25 03:45:30;;;;;;;33.33;13.57;;;;;;;;;;5036638;28;20538;-86
2021/12/25 03:48:07;;;;;;;34.58;15.35;;;;;;;;;;5036270;28;20446;-86
2021/12/25 03:58:35;;;;;;;29.02;12.13;;;;;;;;;;5037328;28;20056;-85
2021/12/25 04:01:14;;;;;;;31.13;13.05;;;;;;;;;;5035673;28;20100;-86
2021/12/25 04:03:48;;;;;;;31.38;11.75;;;;;;;;;;5019313;28;20026;-85
2021/12/25 04:06:15;;;;;;;27.95;12.25;;;;;;;;;;5035797;28;20029;-86
2021/12/25 04:08:44;;;;;;;27.92;11.70;;;;;;;;;;5019244;28;20053;-86
2021/12/25 04:11:26;;;;;;;24.33;11.18;;;;;;;;;;5036877;28;20029;-86
2021/12/25 04:13:52;;;;;;;36.30;13.98;;;;;;;;;;5019201;28;20034;-86
2021/12/25 04:16:18;;;;;;;22.67;12.13;;;;;;;;;;5035634;28;20034;-86
2021/12/25 04:18:45;;;;;;;31.63;14.60;;;;;;;;;;5034267;28;20549;-86
2021/12/25 04:21:11;;;;;;;28.25;15.18;;;;;;;;;;5036436;28;20033;-85
2021/12/25 04:23:40;;;;;;;28.40;16.30;;;;;;;;;;5035467;28;20030;-86
2021/12/25 04:26:07;;;;;;;30.98;16.13;;;;;;;;;;5018920;28;20117;-86
2021/12/25 04:31:36;;;;;;;28.13;15.25;;;;;;;;;;5007814;28;20033;-85
2021/12/25 05:01:51;;;;;;;45.85;22.05;;;;;;;;;;5036184;28;20554;-86
2021/12/25 05:04:30;;;;;;;43.13;21.23;;;;;;;;;;5018264;28;20037;-86
2021/12/25 05:06:56;;;;;;;43.88;21.13;;;;;;;;;;5018029;28;20116;-87
2021/12/25 05:09:22;;;;;;;45.97;20.88;;;;;;;;;;5035890;28;20033;-86
2021/12/25 05:11:49;;;;;;;38.65;15.50;;;;;;;;;;5017997;28;20034;-86
2021/12/25 05:14:15;;;;;;;43.00;16.52;;;;;;;;;;5017906;28;20542;-86
2021/12/25 05:16:41;;;;;;;40.15;18.23;;;;;;;;;;5035435;28;20121;-86
2021/12/25 05:19:08;;;;;;;37.88;17.85;;;;;;;;;;5035486;28;20026;-85
2021/12/25 05:21:34;;;;;;;35.22;14.18;;;;;;;;;;5017807;28;20033;-86
2021/12/25 05:24:01;;;;;;;31.35;13.27;;;;;;;;;;5017817;28;20033;-86
2021/12/25 05:26:27;;;;;;;27.40;12.95;;;;;;;;;;5035533;28;20076;-87
2021/12/25 05:28:59;;;;;;;23.90;11.40;;;;;;;;;;5035326;28;20030;-86
2021/12/25 05:31:26;;;;;;;25.15;11.60;;;;;;;;;;5017208;28;20468;-86
2021/12/25 05:33:53;;;;;;;26.02;12.38;;;;;;;;;;5017644;28;20202;-86
2021/12/25 05:36:19;;;;;;;31.50;12.13;;;;;;;;;;5017470;28;20037;-86
2021/12/25 05:38:46;;;;;;;28.25;11.15;;;;;;;;;;5017531;28;20034;-86
2021/12/25 05:41:13;;;;;;;29.98;12.00;;;;;;;;;;5017308;28;20037;-87
2021/12/25 05:43:39;;;;;;;54.88;28.27;;;;;;;;;;5017384;28;20396;-86
2021/12/25 05:46:05;;;;;;;48.63;24.33;;;;;;;;;;5017360;28;20037;-86
2021/12/25 05:48:35;;;;;;;50.78;26.55;;;;;;;;;;5017127;28;20037;-86
2021/12/25 05:51:05;;;;;;;62.85;29.23;;;;;;;;;;5017334;28;20026;-86
2021/12/25 05:53:32;;;;;;;72.03;34.50;;;;;;;;;;5034986;28;20034;-86
2021/12/25 05:55:58;;;;;;;77.22;38.53;;;;;;;;;;5017150;28;20109;-86
2021/12/25 05:58:25;;;;;;;81.38;40.33;;;;;;;;;;5017205;28;20037;-85
2021/12/25 06:00:52;;;;;;;81.43;37.08;;;;;;;;;;5016957;28;20108;-86
2021/12/25 06:03:18;;;;;;;70.63;33.38;;;;;;;;;;5017216;28;20361;-86
2021/12/25 06:05:44;;;;;;;51.88;25.13;;;;;;;;;;5016932;28;20084;-86
2021/12/25 06:08:10;;;;;;;56.92;25.88;;;;;;;;;;5017011;28;20033;-86
2021/12/25 06:10:37;;;;;;;47.67;22.17;;;;;;;;;;5016955;28;20029;-86
2021/12/25 06:13:03;;;;;;;49.88;21.23;;;;;;;;;;5017009;28;20577;-86
2021/12/25 06:15:29;;;;;;;48.30;19.52;;;;;;;;;;5016796;28;20029;-86
2021/12/25 06:17:57;;;;;;;48.58;20.80;;;;;;;;;;5016820;28;20038;-87
2021/12/25 06:20:23;;;;;;;42.55;17.52;;;;;;;;;;5034418;28;20057;-86
2021/12/25 06:22:49;;;;;;;29.42;13.43;;;;;;;;;;5016685;28;20030;-87
2021/12/25 06:25:16;;;;;;;34.53;13.00;;;;;;;;;;5016478;28;20041;-86
2021/12/25 06:27:42;;;;;;;29.25;12.35;;;;;;;;;;5016702;28;20041;-87
2021/12/25 06:30:09;;;;;;;30.17;12.38;;;;;;;;;;5034302;28;20067;-86
2021/12/25 06:32:35;;;;;;;25.60;11.57;;;;;;;;;;5016057;28;20045;-86
2021/12/25 06:35:01;;;;;;;27.83;13.00;;;;;;;;;;5034304;28;20033;-86
2021/12/25 06:37:28;;;;;;;31.23;12.48;;;;;;;;;;5034097;28;20061;-87
2021/12/25 06:39:54;;;;;;;31.95;13.05;;;;;;;;;;5016414;28;20025;-86
2021/12/25 06:42:20;;;;;;;29.50;12.40;;;;;;;;;;5015697;28;20030;-86
2021/12/25 06:44:47;;;;;;;27.35;11.70;;;;;;;;;;5016769;28;20063;-86
2021/12/25 06:47:13;;;;;;;33.22;12.02;;;;;;;;;;5033944;28;20037;-86
2021/12/25 06:49:39;;;;;;;34.55;14.30;;;;;;;;;;5016265;28;20034;-86
2021/12/25 06:52:06;;;;;;;34.92;13.30;;;;;;;;;;5016264;28;20037;-85
2021/12/25 06:54:32;;;;;;;35.78;14.60;;;;;;;;;;5016332;28;20038;-87
2021/12/25 06:56:59;;;;;;;48.10;19.40;;;;;;;;;;5016301;28;20037;-86
2021/12/25 06:59:25;;;;;;;42.55;19.50;;;;;;;;;;5016085;28;20068;-87
2021/12/25 07:01:52;;;;;;;42.05;18.58;;;;;;;;;;5016199;28;20090;-86
2021/12/25 07:04:18;;;;;;;52.03;18.55;;;;;;;;;;5016217;28;20035;-87
2021/12/25 07:06:45;;;;;;;50.72;17.73;;;;;;;;;;5015902;28;20049;-85
2021/12/25 07:09:11;;;;;;;41.13;17.60;;;;;;;;;;5016102;28;20034;-87
2021/12/25 07:11:38;;;;;;;47.08;16.52;;;;;;;;;;5016204;28;20030;-85
2021/12/25 07:14:05;;;;;;;31.08;12.48;;;;;;;;;;5016092;28;20459;-86
2021/12/25 07:16:32;;;;;;;35.30;13.68;;;;;;;;;;5016074;28;20050;-86
2021/12/25 07:18:59;;;;;;;34.20;13.48;;;;;;;;;;5016046;28;20032;-86
2021/12/25 07:21:25;;;;;;;28.92;12.50;;;;;;;;;;5016054;28;20060;-86
2021/12/25 07:23:51;;;;;;;48.83;20.02;;;;;;;;;;5015986;28;20057;-86
2021/12/25 07:26:19;;;;;;;46.60;20.38;;;;;;;;;;5016105;28;20025;-86
2021/12/25 07:28:46;;;;;;;43.08;19.88;;;;;;;;;;5033800;28;20029;-86
2021/12/25 07:31:12;;;;;;;44.22;18.08;;;;;;;;;;5033850;28;20034;-86
2021/12/25 07:33:40;;;;;;;37.85;16.73;;;;;;;;;;5033531;28;20069;-85
2021/12/25 07:36:08;;;;;;;32.38;15.45;;;;;;;;;;5015884;28;20112;-86
2021/12/25 07:38:34;;;;;;;26.73;11.55;;;;;;;;;;5015828;28;20128;-86
2021/12/25 07:41:00;;;;;;;17.20;6.80;;;;;;;;;;5015971;28;20026;-86
2021/12/25 07:43:27;;;;;;;9.57;3.30;;;;;;;;;;5015790;28;20038;-87
2021/12/25 07:45:53;;;;;;;8.55;3.55;;;;;;;;;;5015726;28;20032;-86
2021/12/25 07:48:21;;;;;;;10.80;4.07;;;;;;;;;;5033414;28;20112;-86
2021/12/25 07:50:48;;;;;;;13.73;5.25;;;;;;;;;;5015646;28;20057;-86
2021/12/25 07:53:16;;;;;;;15.15;6.43;;;;;;;;;;5017402;28;20030;-87
2021/12/25 07:55:43;;;;;;;21.05;7.90;;;;;;;;;;5019352;28;20034;-86
2021/12/25 07:58:10;;;;;;;23.67;9.85;;;;;;;;;;5019354;28;20038;-86
2021/12/25 08:00:36;;;;;;;30.83;12.40;;;;;;;;;;5019345;28;20033;-86
2021/12/25 08:03:03;;;;;;;50.20;24.83;;;;;;;;;;5019384;28;20038;-86
2021/12/25 08:05:30;;;;;;;52.00;24.88;;;;;;;;;;5019213;28;20365;-86
2021/12/25 08:07:56;;;;;;;49.78;19.58;;;;;;;;;;5019253;28;20041;-86
2021/12/25 08:10:22;;;;;;;23.60;11.07;;;;;;;;;;5019249;28;20034;-86
2021/12/25 08:12:50;;;;;;;23.15;9.15;;;;;;;;;;5019123;28;20032;-84
2021/12/25 08:15:17;;;;;;;20.77;9.45;;;;;;;;;;5036858;28;20491;-87
2021/12/25 08:17:44;;;;;;;32.17;14.98;;;;;;;;;;5018968;28;20038;-87
2021/12/25 08:20:11;;;;;;;33.95;15.60;;;;;;;;;;5018987;28;20095;-85
2021/12/25 08:22:38;;;;;;;34.95;14.93;;;;;;;;;;5019252;28;20061;-86
2021/12/25 08:25:05;;;;;;;40.00;16.75;;;;;;;;;;5018846;28;20495;-85
2021/12/25 08:27:31;;;;;;;38.95;17.02;;;;;;;;;;5036561;28;20185;-86
2021/12/25 08:29:58;;;;;;;38.47;15.55;;;;;;;;;;5036491;28;20061;-87
2021/12/25 08:32:24;;;;;;;40.83;18.10;;;;;;;;;;5018665;28;20054;-86
2021/12/25 08:34:51;;;;;;;47.72;18.77;;;;;;;;;;5018575;28;20068;-87
2021/12/25 08:37:22;;;;;;;49.20;21.63;;;;;;;;;;5018435;28;20072;-86
2021/12/25 08:39:49;;;;;;;49.75;23.17;;;;;;;;;;5018675;28;20037;-86
2021/12/25 08:42:15;;;;;;;68.22;31.63;;;;;;;;;;5018589;28;20033;-87
2021/12/25 08:47:29;;;;;;;71.80;35.33;;;;;;;;;;5005113;28;20045;-86
2021/12/25 08:49:55;;;;;;;77.60;35.58;;;;;;;;;;5018603;28;20033;-86
2021/12/25 08:52:23;;;;;;;76.18;36.00;;;;;;;;;;5018345;28;20115;-86
2021/12/25 08:54:50;;;;;;;87.00;38.67;;;;;;;;;;5018241;28;20069;-86
2021/12/25 08:57:20;;;;;;;79.68;37.33;;;;;;;;;;5017980;28;20037;-86
2021/12/25 08:59:47;;;;;;;73.97;35.15;;;;;;;;;;5018327;28;20037;-87
2021/12/25 09:02:16;;;;;;;79.53;34.95;;;;;;;;;;5018171;28;20071;-87
2021/12/25 09:04:43;;;;;;;80.70;35.08;;;;;;;;;;5017174;28;20029;-86
2021/12/25 09:07:10;;;;;;;75.47;33.53;;;;;;;;;;5018058;28;20059;-86
2021/12/25 09:09:36;;;;;;;80.60;36.95;;;;;;;;;;5017996;28;20057;-87
2021/12/25 09:12:04;;;;;;;126.22;54.88;;;;;;;;;;5018117;28;20033;-87
2021/12/25 09:14:30;;;;;;;127.75;58.80;;;;;;;;;;5017799;28;20064;-86
2021/12/25 09:16:57;;;;;;;145.93;71.05;;;;;;;;;;5017761;28;20045;-85
2021/12/25 09:19:23;;;;;;;208.40;103.80;;;;;;;;;;5035556;28;20064;-85
2021/12/25 09:21:50;;;;;;;207.75;105.60;;;;;;;;;;5017790;28;20116;-86
2021/12/25 09:24:16;;;;;;;222.65;108.10;;;;;;;;;;5017764;28;20121;-86
2021/12/25 09:26:43;;;;;;;214.82;107.05;;;;;;;;;;5035502;28;20052;-86
2021/12/25 09:29:10;;;;;;;240.70;119.45;;;;;;;;;;5017821;28;20037;-86
2021/12/25 09:31:36;;;;;;;270.13;129.68;;;;;;;;;;5017205;28;20052;-86
2021/12/25 09:34:02;;;;;;;267.67;137.32;;;;;;;;;;5017440;28;20092;-86
2021/12/25 09:36:30;;;;;;;270.35;138.23;;;;;;;;;;5017402;28;20034;-87
2021/12/25 09:38:57;;;;;;;279.33;149.52;;;;;;;;;;5017621;28;20034;-86
2021/12/25 09:41:23;;;;;;;314.08;163.13;;;;;;;;;;5017383;28;20120;-86
2021/12/25 09:43:49;;;;;;;321.23;171.35;;;;;;;;;;5017413;28;20112;-86
2021/12/25 09:46:21;;;;;;;332.95;175.10;;;;;;;;;;5017546;28;20040;-86
2021/12/25 09:48:50;;;;;;;353.48;179.65;;;;;;;;;;5017329;28;20477;-86
2021/12/25 09:51:16;;;;;;;333.63;176.43;;;;;;;;;;5017213;28;20029;-86
2021/12/25 09:53:43;;;;;;;327.08;171.40;;;;;;;;;;5017292;28;20545;-86
2021/12/25 09:56:09;;;;;;;330.33;170.90;;;;;;;;;;5017259;28;20037;-86
2021/12/25 09:58:35;;;;;;;333.05;177.77;;;;;;;;;;5017077;28;20037;-87
2021/12/25 10:01:02;;;;;;;327.38;175.98;;;;;;;;;;5034879;28;20108;-86
2021/12/25 10:03:43;;;;;;;329.30;172.80;;;;;;;;;;5017033;28;20033;-86
2021/12/25 10:06:09;;;;;;;304.52;156.50;;;;;;;;;;5016906;28;20358;-86
2021/12/25 10:08:39;;;;;;;277.77;146.07;;;;;;;;;;5016959;28;20041;-86
2021/12/25 10:11:05;;;;;;;243.57;127.15;;;;;;;;;;5017002;28;20037;-86
2021/12/25 10:13:35;;;;;;;254.43;126.30;;;;;;;;;;5017185;28;20044;-86
2021/12/25 10:16:21;;;;;;;241.43;127.80;;;;;;;;;;5016997;28;20030;-87
2021/12/25 10:18:47;;;;;;;223.35;118.60;;;;;;;;;;5016904;28;20365;-86
2021/12/25 10:21:18;;;;;;;206.50;106.43;;;;;;;;;;5016799;28;20075;-86
2021/12/25 10:23:44;;;;;;;205.23;103.15;;;;;;;;;;5016876;28;20029;-86
2021/12/25 10:26:11;;;;;;;192.13;99.88;;;;;;;;;;5034388;28;20376;-86
2021/12/25 10:28:40;;;;;;;204.98;102.55;;;;;;;;;;5016644;28;20040;-86
2021/12/25 10:31:08;;;;;;;195.10;96.90;;;;;;;;;;5016488;28;20498;-86
2021/12/25 10:33:34;;;;;;;189.57;96.13;;;;;;;;;;5016585;28;20053;-86
2021/12/25 10:36:04;;;;;;;190.43;96.82;;;;;;;;;;5034245;28;20033;-86
2021/12/25 10:38:31;;;;;;;202.52;97.90;;;;;;;;;;5016575;28;20048;-86
2021/12/25 10:41:11;;;;;;;201.18;100.13;;;;;;;;;;5034252;28;20104;-86
2021/12/25 10:43:41;;;;;;;212.10;105.82;;;;;;;;;;5016520;28;20038;-86
2021/12/25 10:46:08;;;;;;;262.50;133.35;;;;;;;;;;5016653;28;20052;-86
2021/12/25 10:48:34;;;;;;;298.02;156.27;;;;;;;;;;5016406;28;20392;-86
2021/12/25 10:51:00;;;;;;;338.63;175.85;;;;;;;;;;5016274;28;20060;-87
2021/12/25 10:53:32;;;;;;;321.90;169.90;;;;;;;;;;5016337;28;20056;-86
2021/12/25 10:56:24;;;;;;;347.77;185.63;;;;;;;;;;5016537;28;20030;-86
2021/12/25 10:58:50;;;;;;;381.45;201.13;;;;;;;;;;5013393;28;20441;-86
2021/12/25 11:01:17;;;;;;;389.63;213.80;;;;;;;;;;5033876;28;20416;-86
2021/12/25 11:03:46;;;;;;;374.38;203.30;;;;;;;;;;5016165;28;20369;-85
2021/12/25 11:06:13;;;;;;;384.25;210.63;;;;;;;;;;5015966;28;20032;-85
2021/12/25 11:08:40;;;;;;;401.88;217.82;;;;;;;;;;5016207;28;20041;-86
2021/12/25 11:11:11;;;;;;;405.50;218.75;;;;;;;;;;5016204;28;20029;-86
2021/12/25 11:13:42;;;;;;;429.30;222.25;;;;;;;;;;5016230;28;20124;-86
2021/12/25 11:16:18;;;;;;;436.02;241.38;;;;;;;;;;5016224;28;20487;-87
2021/12/25 11:19:05;;;;;;;443.35;239.35;;;;;;;;;;5033731;28;20042;-86
2021/12/25 11:21:55;;;;;;;443.33;243.57;;;;;;;;;;5016293;28;20057;-86
2021/12/25 11:24:23;;;;;;;434.77;236.70;;;;;;;;;;5008524;28;20040;-86
2021/12/25 11:26:51;;;;;;;428.45;228.68;;;;;;;;;;5033693;28;20033;-86
2021/12/25 11:29:18;;;;;;;415.92;222.88;;;;;;;;;;5037179;28;20059;-86
2021/12/25 11:31:45;;;;;;;416.70;223.90;;;;;;;;;;5019776;28;20392;-86
2021/12/25 11:34:12;;;;;;;426.90;217.75;;;;;;;;;;5019902;28;20041;-86
2021/12/25 11:36:45;;;;;;;422.70;227.40;;;;;;;;;;5037491;28;20484;-86
2021/12/25 11:39:11;;;;;;;412.30;208.35;;;;;;;;;;5019828;28;20046;-86
2021/12/25 11:41:39;;;;;;;402.35;200.85;;;;;;;;;;5019744;28;20383;-86
2021/12/25 11:44:07;;;;;;;399.98;201.30;;;;;;;;;;5019638;28;20053;-87
2021/12/25 11:46:39;;;;;;;367.83;174.88;;;;;;;;;;5019781;28;20034;-87
2021/12/25 11:49:09;;;;;;;381.15;179.80;;;;;;;;;;5019782;28;20033;-86
2021/12/25 11:51:38;;;;;;;363.90;173.15;;;;;;;;;;5019653;28;20036;-86
2021/12/25 11:54:27;;;;;;;373.92;182.32;;;;;;;;;;5037255;28;20034;-86
2021/12/25 11:57:10;;;;;;;346.85;161.32;;;;;;;;;;5019598;28;20041;-86
2021/12/25 11:59:47;;;;;;;342.35;157.70;;;;;;;;;;5019384;28;20120;-86
2021/12/25 12:02:33;;;;;;;326.40;155.00;;;;;;;;;;5019470;28;20073;-87
2021/12/25 12:05:18;;;;;;;333.15;149.32;;;;;;;;;;5019818;28;20026;-86
2021/12/25 12:08:04;;;;;;;314.10;148.40;;;;;;;;;;5019512;28;20041;-86
2021/12/25 12:10:46;;;;;;;313.73;147.27;;;;;;;;;;5036941;28;20034;-86
2021/12/25 12:13:23;;;;;;;317.55;147.77;;;;;;;;;;5019284;28;20051;-86
2021/12/25 12:15:51;;;;;;;340.58;158.73;;;;;;;;;;5019073;28;20072;-86
2021/12/25 12:18:23;;;;;;;333.05;152.07;;;;;;;;;;5019011;28;20044;-86
2021/12/25 12:20:49;;;;;;;323.30;151.75;;;;;;;;;;5018858;28;20091;-85
2021/12/25 12:24:23;;;;;;;328.70;150.38;;;;;;;;;;5019058;28;20095;-86
2021/12/25 12:26:36;;;;;;;337.67;154.13;;;;;;;;;;5028252;28;20469;-86
2021/12/25 12:29:02;;;;;;;342.40;153.43;;;;;;;;;;5018951;28;20041;-85
2021/12/25 12:31:39;;;;;;;329.30;146.55;;;;;;;;;;5018633;28;20072;-86
2021/12/25 12:34:24;;;;;;;342.48;158.02;;;;;;;;;;5018823;28;20033;-87
2021/12/25 12:36:50;;;;;;;345.42;163.15;;;;;;;;;;5018673;28;20049;-86
2021/12/25 12:39:20;;;;;;;358.33;165.90;;;;;;;;;;5035348;28;20026;-86
2021/12/25 12:41:51;;;;;;;412.63;186.75;;;;;;;;;;5018868;28;20029;-86
2021/12/25 12:44:38;;;;;;;402.17;178.07;;;;;;;;;;5018397;28;20092;-86
2021/12/25 12:47:06;;;;;;;433.20;192.95;;;;;;;;;;5018652;28;20153;-87
2021/12/25 12:49:32;;;;;;;471.17;198.32;;;;;;;;;;5018527;28;20034;-86
2021/12/25 12:52:14;;;;;;;420.65;191.93;;;;;;;;;;5018380;28;20380;-86
2021/12/25 12:54:45;;;;;;;430.10;186.57;;;;;;;;;;5018380;28;20033;-86
2021/12/25 12:57:17;;;;;;;426.98;189.88;;;;;;;;;;5018350;28;20092;-86
2021/12/25 12:59:45;;;;;;;378.10;165.80;;;;;;;;;;5018444;28;20365;-86
2021/12/25 13:02:12;;;;;;;372.83;164.38;;;;;;;;;;5018327;28;20103;-86
2021/12/25 13:04:58;;;;;;;392.95;177.10;;;;;;;;;;5018436;28;20026;-86
2021/12/25 13:07:26;;;;;;;415.20;176.27;;;;;;;;;;5018323;28;20033;-86
2021/12/25 13:10:26;;;;;;;418.40;183.05;;;;;;;;;;5018027;28;20488;-85
2021/12/25 13:13:05;;;;;;;412.23;183.98;;;;;;;;;;5017948;28;20049;-86
2021/12/25 13:15:33;;;;;;;420.98;176.73;;;;;;;;;;5035901;28;20112;-86
2021/12/25 13:18:01;;;;;;;385.33;164.57;;;;;;;;;;5035585;28;20068;-86
2021/12/25 13:20:45;;;;;;;380.90;165.43;;;;;;;;;;5036004;28;20029;-86
2021/12/25 13:23:17;;;;;;;360.98;154.45;;;;;;;;;;5035675;28;20519;-86
2021/12/25 13:26:03;;;;;;;373.02;156.98;;;;;;;;;;5017584;28;20040;-86
2021/12/25 13:28:31;;;;;;;343.50;150.60;;;;;;;;;;5017726;28;20045;-86
2021/12/25 13:31:00;;;;;;;339.13;148.25;;;;;;;;;;5001561;28;20033;-86
2021/12/25 13:33:27;;;;;;;379.35;160.18;;;;;;;;;;5035625;28;20065;-86
2021/12/25 13:36:05;;;;;;;351.80;153.55;;;;;;;;;;5017573;28;20480;-86
2021/12/25 13:38:50;;;;;;;356.17;151.90;;;;;;;;;;5035601;28;20103;-86
2021/12/25 13:41:27;;;;;;;397.10;159.80;;;;;;;;;;5017615;28;20040;-86
2021/12/25 13:44:04;;;;;;;349.15;145.25;;;;;;;;;;5017680;28;20033;-86
2021/12/25 13:46:56;;;;;;;349.02;142.45;;;;;;;;;;5017708;28;20033;-86
2021/12/25 13:49:42;;;;;;;344.88;139.55;;;;;;;;;;5014476;28;20033;-86
2021/12/25 13:52:33;;;;;;;322.63;126.45;;;;;;;;;;5017103;28;20116;-86
2021/12/25 13:55:19;;;;;;;374.75;138.88;;;;;;;;;;5017449;28;20468;-86
2021/12/25 13:57:48;;;;;;;354.10;132.25;;;;;;;;;;5017197;28;20037;-87
2021/12/25 14:00:17;;;;;;;338.15;130.73;;;;;;;;;;5017413;28;20033;-86
2021/12/25 14:02:45;;;;;;;352.17;130.00;;;;;;;;;;5017177;28;20476;-86
2021/12/25 14:05:12;;;;;;;322.02;128.55;;;;;;;;;;5017382;28;20087;-86
2021/12/25 14:07:40;;;;;;;305.45;123.03;;;;;;;;;;5017190;28;20061;-86
2021/12/25 14:10:09;;;;;;;304.45;121.82;;;;;;;;;;5017022;28;20116;-87
2021/12/25 14:12:36;;;;;;;285.58;117.88;;;;;;;;;;5034948;28;20053;-86
2021/12/25 14:15:03;;;;;;;307.08;120.88;;;;;;;;;;5017059;28;20054;-86
2021/12/25 14:17:31;;;;;;;291.63;119.28;;;;;;;;;;5016957;28;20037;-86
2021/12/25 14:20:07;;;;;;;295.00;114.85;;;;;;;;;;5034581;28;20025;-86
2021/12/25 14:22:34;;;;;;;266.15;108.53;;;;;;;;;;5017285;28;20087;-86
2021/12/25 14:25:00;;;;;;;281.80;111.47;;;;;;;;;;5016939;28;20087;-86
2021/12/25 14:27:27;;;;;;;251.88;104.25;;;;;;;;;;5016992;28;20523;-86
2021/12/25 14:30:03;;;;;;;238.73;103.03;;;;;;;;;;5034463;28;20040;-86
2021/12/25 14:32:31;;;;;;;231.38;102.72;;;;;;;;;;5016614;28;20056;-86
2021/12/25 14:34:58;;;;;;;233.25;103.50;;;;;;;;;;5016572;28;20468;-86
2021/12/25 14:37:32;;;;;;;234.32;103.70;;;;;;;;;;5016908;28;20052;-86
2021/12/25 14:40:04;;;;;;;238.80;104.88;;;;;;;;;;5034481;28;20065;-86
2021/12/25 14:42:35;;;;;;;254.40;109.72;;;;;;;;;;5016610;28;20056;-86
2021/12/25 14:45:01;;;;;;;244.88;106.82;;;;;;;;;;5016732;28;20529;-86
2021/12/25 14:47:28;;;;;;;236.90;105.90;;;;;;;;;;5016205;28;20029;-86
2021/12/25 14:49:54;;;;;;;238.00;107.03;;;;;;;;;;5016460;28;20033;-86
2021/12/25 14:52:22;;;;;;;241.60;106.20;;;;;;;;;;5016443;28;20033;-86
2021/12/25 14:54:49;;;;;;;233.00;103.47;;;;;;;;;;5016385;28;20025;-86
2021/12/25 14:57:25;;;;;;;239.02;102.03;;;;;;;;;;5016318;28;20492;-86
2021/12/25 14:59:52;;;;;;;228.32;101.75;;;;;;;;;;5016298;28;20095;-86
2021/12/25 15:02:21;;;;;;;234.88;100.20;;;;;;;;;;5033568;28;20029;-85
2021/12/25 15:04:53;;;;;;;226.80;97.90;;;;;;;;;;5016207;28;20480;-86
2021/12/25 15:07:19;;;;;;;229.15;101.35;;;;;;;;;;5034167;28;20476;-85
2021/12/25 15:09:53;;;;;;;225.27;96.45;;;;;;;;;;5016320;28;20120;-86
2021/12/25 15:12:25;;;;;;;198.82;88.72;;;;;;;;;;5016337;28;20026;-87
2021/12/25 15:15:01;;;;;;;194.55;88.65;;;;;;;;;;5016361;28;20057;-86
2021/12/25 15:17:29;;;;;;;206.93;90.95;;;;;;;;;;5016289;28;20045;-86
2021/12/25 15:20:00;;;;;;;203.00;88.63;;;;;;;;;;5016399;28;20439;-86
2021/12/25 15:22:26;;;;;;;191.82;87.80;;;;;;;;;;5016092;28;20038;-85
2021/12/25 15:24:52;;;;;;;209.90;91.13;;;;;;;;;;5016179;28;20083;-86
2021/12/25 15:27:32;;;;;;;209.10;93.28;;;;;;;;;;5016230;28;20048;-86
2021/12/25 15:30:12;;;;;;;224.50;98.75;;;;;;;;;;5033905;28;20109;-86
2021/12/25 15:32:42;;;;;;;252.65;107.45;;;;;;;;;;5015662;28;20077;-86
2021/12/25 15:35:10;;;;;;;237.75;106.45;;;;;;;;;;5016138;28;20072;-86
2021/12/25 15:37:40;;;;;;;261.13;113.57;;;;;;;;;;5016043;28;20034;-86
2021/12/25 15:40:09;;;;;;;249.77;113.05;;;;;;;;;;5016291;28;20033;-86
2021/12/25 15:42:35;;;;;;;249.23;111.05;;;;;;;;;;5033631;28;20028;-86